sensor_id;sensor_type;location;lat;lon;timestamp;P1;durP1;ratioP1;P2;durP2;ratioP2
76939;SDS011;65885;55.848;35.916;2023-03-05T00:02:08;0.60;;;0.30;;
76939;SDS011;65885;55.848;35.916;2023-03-05T00:04:36;2.13;;;0.50;;
76939;SDS011;65885;55.848;35.916;2023-03-05T00:07:03;0.63;;;0.22;;
76939;SDS011;65885;55.848;35.916;2023-03-05T00:09:34;1.10;;;0.30;;
76939;SDS011;65885;55.848;35.916;2023-03-05T00:12:02;0.20;;;0.15;;
76939;SDS011;65885;55.848;35.916;2023-03-05T00:14:29;0.55;;;0.52;;
76939;SDS011;65885;55.848;35.916;2023-03-05T00:16:57;0.22;;;0.22;;
76939;SDS011;65885;55.848;35.916;2023-03-05T00:19:24;0.70;;;0.70;;
76939;SDS011;65885;55.848;35.916;2023-03-05T00:21:52;0.43;;;0.40;;
76939;SDS011;65885;55.848;35.916;2023-03-05T00:24:19;0.15;;;0.10;;
76939;SDS011;65885;55.848;35.916;2023-03-05T00:26:48;0.43;;;0.43;;
76939;SDS011;65885;55.848;35.916;2023-03-05T00:29:16;0.40;;;0.40;;
76939;SDS011;65885;55.848;35.916;2023-03-05T00:31:46;0.22;;;0.22;;
76939;SDS011;65885;55.848;35.916;2023-03-05T00:34:14;0.65;;;0.52;;
76939;SDS011;65885;55.848;35.916;2023-03-05T00:36:45;0.50;;;0.50;;
76939;SDS011;65885;55.848;35.916;2023-03-05T00:39:13;0.98;;;0.43;;
76939;SDS011;65885;55.848;35.916;2023-03-05T00:41:41;0.40;;;0.30;;
76939;SDS011;65885;55.848;35.916;2023-03-05T00:44:10;1.02;;;0.38;;
76939;SDS011;65885;55.848;35.916;2023-03-05T00:46:38;0.63;;;0.63;;
76939;SDS011;65885;55.848;35.916;2023-03-05T00:49:05;0.68;;;0.68;;
76939;SDS011;65885;55.848;35.916;2023-03-05T00:51:33;0.57;;;0.40;;
76939;SDS011;65885;55.848;35.916;2023-03-05T00:54:01;0.22;;;0.22;;
76939;SDS011;65885;55.848;35.916;2023-03-05T00:56:28;0.20;;;0.20;;
76939;SDS011;65885;55.848;35.916;2023-03-05T00:58:55;1.48;;;0.30;;
76939;SDS011;65885;55.848;35.916;2023-03-05T01:01:24;0.30;;;0.30;;
76939;SDS011;65885;55.848;35.916;2023-03-05T01:03:52;0.80;;;0.80;;
76939;SDS011;65885;55.848;35.916;2023-03-05T01:06:21;0.65;;;0.65;;
76939;SDS011;65885;55.848;35.916;2023-03-05T01:08:50;0.40;;;0.20;;
76939;SDS011;65885;55.848;35.916;2023-03-05T01:11:17;0.28;;;0.17;;
76939;SDS011;65885;55.848;35.916;2023-03-05T01:13:45;1.20;;;0.30;;
76939;SDS011;65885;55.848;35.916;2023-03-05T01:16:12;0.20;;;0.20;;
76939;SDS011;65885;55.848;35.916;2023-03-05T01:18:41;0.20;;;0.20;;
76939;SDS011;65885;55.848;35.916;2023-03-05T01:21:09;0.95;;;0.73;;
76939;SDS011;65885;55.848;35.916;2023-03-05T01:23:36;0.50;;;0.32;;
76939;SDS011;65885;55.848;35.916;2023-03-05T01:26:04;0.75;;;0.60;;
76939;SDS011;65885;55.848;35.916;2023-03-05T01:28:32;0.98;;;0.47;;
76939;SDS011;65885;55.848;35.916;2023-03-05T01:31:05;0.63;;;0.63;;
76939;SDS011;65885;55.848;35.916;2023-03-05T01:33:33;1.38;;;0.43;;
76939;SDS011;65885;55.848;35.916;2023-03-05T01:36:02;0.52;;;0.43;;
76939;SDS011;65885;55.848;35.916;2023-03-05T01:38:33;0.63;;;0.22;;
76939;SDS011;65885;55.848;35.916;2023-03-05T01:41:00;0.68;;;0.63;;
76939;SDS011;65885;55.848;35.916;2023-03-05T01:43:28;0.63;;;0.63;;
76939;SDS011;65885;55.848;35.916;2023-03-05T01:48:53;0.50;;;0.25;;
76939;SDS011;65885;55.848;35.916;2023-03-05T01:51:28;0.50;;;0.25;;
76939;SDS011;65885;55.848;35.916;2023-03-05T01:53:58;1.33;;;0.43;;
76939;SDS011;65885;55.848;35.916;2023-03-05T01:56:27;0.50;;;0.50;;
76939;SDS011;65885;55.848;35.916;2023-03-05T01:58:56;0.50;;;0.50;;
76939;SDS011;65885;55.848;35.916;2023-03-05T02:01:29;0.60;;;0.30;;
76939;SDS011;65885;55.848;35.916;2023-03-05T02:03:57;0.60;;;0.40;;
76939;SDS011;65885;55.848;35.916;2023-03-05T02:06:26;0.10;;;0.10;;
76939;SDS011;65885;55.848;35.916;2023-03-05T02:08:55;0.15;;;0.13;;
76939;SDS011;65885;55.848;35.916;2023-03-05T02:11:22;0.50;;;0.35;;
76939;SDS011;65885;55.848;35.916;2023-03-05T02:13:50;0.45;;;0.45;;
76939;SDS011;65885;55.848;35.916;2023-03-05T02:16:17;0.85;;;0.85;;
76939;SDS011;65885;55.848;35.916;2023-03-05T02:18:45;0.55;;;0.55;;
76939;SDS011;65885;55.848;35.916;2023-03-05T02:21:13;0.52;;;0.20;;
76939;SDS011;65885;55.848;35.916;2023-03-05T02:23:54;0.38;;;0.28;;
76939;SDS011;65885;55.848;35.916;2023-03-05T02:26:21;1.70;;;0.30;;
76939;SDS011;65885;55.848;35.916;2023-03-05T02:28:49;0.40;;;0.22;;
76939;SDS011;65885;55.848;35.916;2023-03-05T02:31:22;1.20;;;0.77;;
76939;SDS011;65885;55.848;35.916;2023-03-05T02:33:50;0.25;;;0.25;;
76939;SDS011;65885;55.848;35.916;2023-03-05T02:36:22;0.28;;;0.20;;
76939;SDS011;65885;55.848;35.916;2023-03-05T02:38:49;0.40;;;0.40;;
76939;SDS011;65885;55.848;35.916;2023-03-05T02:41:21;0.43;;;0.32;;
76939;SDS011;65885;55.848;35.916;2023-03-05T02:43:49;0.57;;;0.22;;
76939;SDS011;65885;55.848;35.916;2023-03-05T02:46:16;0.30;;;0.30;;
76939;SDS011;65885;55.848;35.916;2023-03-05T02:48:44;0.50;;;0.50;;
76939;SDS011;65885;55.848;35.916;2023-03-05T02:51:11;0.22;;;0.22;;
76939;SDS011;65885;55.848;35.916;2023-03-05T02:53:40;0.55;;;0.22;;
76939;SDS011;65885;55.848;35.916;2023-03-05T02:56:07;1.40;;;0.80;;
76939;SDS011;65885;55.848;35.916;2023-03-05T02:58:35;0.75;;;0.70;;
76939;SDS011;65885;55.848;35.916;2023-03-05T03:01:02;1.02;;;0.70;;
76939;SDS011;65885;55.848;35.916;2023-03-05T03:03:30;0.30;;;0.28;;
76939;SDS011;65885;55.848;35.916;2023-03-05T03:05:57;0.47;;;0.28;;
76939;SDS011;65885;55.848;35.916;2023-03-05T03:08:24;0.60;;;0.60;;
76939;SDS011;65885;55.848;35.916;2023-03-05T03:10:53;0.60;;;0.60;;
76939;SDS011;65885;55.848;35.916;2023-03-05T03:13:21;0.43;;;0.20;;
76939;SDS011;65885;55.848;35.916;2023-03-05T03:15:49;1.95;;;0.32;;
76939;SDS011;65885;55.848;35.916;2023-03-05T03:18:17;0.50;;;0.50;;
76939;SDS011;65885;55.848;35.916;2023-03-05T03:20:44;0.95;;;0.32;;
76939;SDS011;65885;55.848;35.916;2023-03-05T03:23:11;0.32;;;0.32;;
76939;SDS011;65885;55.848;35.916;2023-03-05T03:25:39;0.30;;;0.30;;
76939;SDS011;65885;55.848;35.916;2023-03-05T03:28:07;0.65;;;0.63;;
76939;SDS011;65885;55.848;35.916;2023-03-05T03:30:35;0.77;;;0.60;;
76939;SDS011;65885;55.848;35.916;2023-03-05T03:33:02;1.05;;;0.43;;
76939;SDS011;65885;55.848;35.916;2023-03-05T03:35:29;2.75;;;0.32;;
76939;SDS011;65885;55.848;35.916;2023-03-05T03:37:56;0.13;;;0.13;;
76939;SDS011;65885;55.848;35.916;2023-03-05T03:40:24;0.63;;;0.40;;
76939;SDS011;65885;55.848;35.916;2023-03-05T03:42:51;0.40;;;0.40;;
76939;SDS011;65885;55.848;35.916;2023-03-05T03:45:20;0.22;;;0.22;;
76939;SDS011;65885;55.848;35.916;2023-03-05T03:47:47;0.60;;;0.60;;
76939;SDS011;65885;55.848;35.916;2023-03-05T03:50:15;0.57;;;0.57;;
76939;SDS011;65885;55.848;35.916;2023-03-05T03:52:45;0.50;;;0.40;;
76939;SDS011;65885;55.848;35.916;2023-03-05T03:55:13;0.17;;;0.10;;
76939;SDS011;65885;55.848;35.916;2023-03-05T03:57:40;1.83;;;0.32;;
76939;SDS011;65885;55.848;35.916;2023-03-05T04:00:09;2.58;;;0.80;;
76939;SDS011;65885;55.848;35.916;2023-03-05T04:02:38;0.70;;;0.30;;
76939;SDS011;65885;55.848;35.916;2023-03-05T04:05:06;0.85;;;0.50;;
76939;SDS011;65885;55.848;35.916;2023-03-05T04:07:34;2.38;;;0.52;;
76939;SDS011;65885;55.848;35.916;2023-03-05T04:10:01;0.60;;;0.60;;
76939;SDS011;65885;55.848;35.916;2023-03-05T04:12:29;0.98;;;0.70;;
76939;SDS011;65885;55.848;35.916;2023-03-05T04:14:57;0.20;;;0.20;;
76939;SDS011;65885;55.848;35.916;2023-03-05T04:17:24;0.60;;;0.60;;
76939;SDS011;65885;55.848;35.916;2023-03-05T04:19:53;0.57;;;0.32;;
76939;SDS011;65885;55.848;35.916;2023-03-05T04:22:20;0.30;;;0.30;;
76939;SDS011;65885;55.848;35.916;2023-03-05T04:24:48;0.30;;;0.13;;
76939;SDS011;65885;55.848;35.916;2023-03-05T04:27:15;0.28;;;0.22;;
76939;SDS011;65885;55.848;35.916;2023-03-05T04:29:43;0.63;;;0.63;;
76939;SDS011;65885;55.848;35.916;2023-03-05T04:32:10;0.88;;;0.17;;
76939;SDS011;65885;55.848;35.916;2023-03-05T04:34:37;0.60;;;0.60;;
76939;SDS011;65885;55.848;35.916;2023-03-05T04:37:06;0.32;;;0.32;;
76939;SDS011;65885;55.848;35.916;2023-03-05T04:39:33;1.25;;;0.65;;
76939;SDS011;65885;55.848;35.916;2023-03-05T04:42:01;1.10;;;0.30;;
76939;SDS011;65885;55.848;35.916;2023-03-05T04:44:28;0.57;;;0.57;;
76939;SDS011;65885;55.848;35.916;2023-03-05T04:46:55;0.50;;;0.50;;
76939;SDS011;65885;55.848;35.916;2023-03-05T04:49:23;0.93;;;0.28;;
76939;SDS011;65885;55.848;35.916;2023-03-05T04:51:51;0.45;;;0.40;;
76939;SDS011;65885;55.848;35.916;2023-03-05T04:54:19;0.63;;;0.30;;
76939;SDS011;65885;55.848;35.916;2023-03-05T04:56:47;0.20;;;0.20;;
76939;SDS011;65885;55.848;35.916;2023-03-05T04:59:14;0.47;;;0.47;;
76939;SDS011;65885;55.848;35.916;2023-03-05T05:01:42;0.75;;;0.75;;
76939;SDS011;65885;55.848;35.916;2023-03-05T05:04:09;0.20;;;0.20;;
76939;SDS011;65885;55.848;35.916;2023-03-05T05:06:36;0.95;;;0.95;;
76939;SDS011;65885;55.848;35.916;2023-03-05T05:09:04;0.35;;;0.35;;
76939;SDS011;65885;55.848;35.916;2023-03-05T05:11:33;0.65;;;0.55;;
76939;SDS011;65885;55.848;35.916;2023-03-05T05:14:00;0.70;;;0.70;;
76939;SDS011;65885;55.848;35.916;2023-03-05T05:16:27;0.57;;;0.50;;
76939;SDS011;65885;55.848;35.916;2023-03-05T05:18:55;0.77;;;0.77;;
76939;SDS011;65885;55.848;35.916;2023-03-05T05:21:22;0.50;;;0.40;;
76939;SDS011;65885;55.848;35.916;2023-03-05T05:23:50;0.60;;;0.15;;
76939;SDS011;65885;55.848;35.916;2023-03-05T05:26:17;0.63;;;0.63;;
76939;SDS011;65885;55.848;35.916;2023-03-05T05:28:46;1.65;;;0.40;;
76939;SDS011;65885;55.848;35.916;2023-03-05T05:31:13;0.60;;;0.60;;
76939;SDS011;65885;55.848;35.916;2023-03-05T05:33:42;1.02;;;0.52;;
76939;SDS011;65885;55.848;35.916;2023-03-05T05:36:13;0.22;;;0.20;;
76939;SDS011;65885;55.848;35.916;2023-03-05T05:38:43;0.50;;;0.40;;
76939;SDS011;65885;55.848;35.916;2023-03-05T05:41:12;0.40;;;0.40;;
76939;SDS011;65885;55.848;35.916;2023-03-05T05:43:40;0.35;;;0.35;;
76939;SDS011;65885;55.848;35.916;2023-03-05T05:46:12;0.55;;;0.55;;
76939;SDS011;65885;55.848;35.916;2023-03-05T05:48:40;0.45;;;0.45;;
76939;SDS011;65885;55.848;35.916;2023-03-05T05:51:09;0.60;;;0.60;;
76939;SDS011;65885;55.848;35.916;2023-03-05T05:53:39;0.10;;;0.10;;
76939;SDS011;65885;55.848;35.916;2023-03-05T05:56:07;1.00;;;0.40;;
76939;SDS011;65885;55.848;35.916;2023-03-05T05:58:36;0.82;;;0.68;;
76939;SDS011;65885;55.848;35.916;2023-03-05T06:01:12;0.63;;;0.63;;
76939;SDS011;65885;55.848;35.916;2023-03-05T06:03:41;0.90;;;0.90;;
76939;SDS011;65885;55.848;35.916;2023-03-05T06:06:08;0.30;;;0.20;;
76939;SDS011;65885;55.848;35.916;2023-03-05T06:08:36;1.38;;;0.32;;
76939;SDS011;65885;55.848;35.916;2023-03-05T06:11:04;1.02;;;0.93;;
76939;SDS011;65885;55.848;35.916;2023-03-05T06:13:33;0.45;;;0.32;;
76939;SDS011;65885;55.848;35.916;2023-03-05T06:16:01;0.75;;;0.40;;
76939;SDS011;65885;55.848;35.916;2023-03-05T06:18:32;0.52;;;0.50;;
76939;SDS011;65885;55.848;35.916;2023-03-05T06:21:00;0.65;;;0.65;;
76939;SDS011;65885;55.848;35.916;2023-03-05T06:23:30;0.43;;;0.43;;
76939;SDS011;65885;55.848;35.916;2023-03-05T06:25:58;0.85;;;0.52;;
76939;SDS011;65885;55.848;35.916;2023-03-05T06:28:27;0.52;;;0.52;;
76939;SDS011;65885;55.848;35.916;2023-03-05T06:31:01;0.57;;;0.32;;
76939;SDS011;65885;55.848;35.916;2023-03-05T06:33:29;1.10;;;0.60;;
76939;SDS011;65885;55.848;35.916;2023-03-05T06:36:01;0.70;;;0.70;;
76939;SDS011;65885;55.848;35.916;2023-03-05T06:38:29;0.75;;;0.75;;
76939;SDS011;65885;55.848;35.916;2023-03-05T06:40:59;0.80;;;0.80;;
76939;SDS011;65885;55.848;35.916;2023-03-05T06:43:27;0.57;;;0.35;;
76939;SDS011;65885;55.848;35.916;2023-03-05T06:46:01;0.70;;;0.40;;
76939;SDS011;65885;55.848;35.916;2023-03-05T06:48:29;1.15;;;0.70;;
76939;SDS011;65885;55.848;35.916;2023-03-05T06:50:58;0.55;;;0.40;;
76939;SDS011;65885;55.848;35.916;2023-03-05T06:53:26;1.00;;;0.90;;
76939;SDS011;65885;55.848;35.916;2023-03-05T06:55:53;1.20;;;0.73;;
76939;SDS011;65885;55.848;35.916;2023-03-05T06:58:21;0.52;;;0.52;;
76939;SDS011;65885;55.848;35.916;2023-03-05T07:00:49;1.20;;;1.10;;
76939;SDS011;65885;55.848;35.916;2023-03-05T07:03:16;0.70;;;0.50;;
76939;SDS011;65885;55.848;35.916;2023-03-05T07:05:43;1.15;;;0.98;;
76939;SDS011;65885;55.848;35.916;2023-03-05T07:08:13;0.70;;;0.50;;
76939;SDS011;65885;55.848;35.916;2023-03-05T07:10:40;1.30;;;0.75;;
76939;SDS011;65885;55.848;35.916;2023-03-05T07:13:09;1.10;;;0.90;;
76939;SDS011;65885;55.848;35.916;2023-03-05T07:15:37;1.98;;;1.20;;
76939;SDS011;65885;55.848;35.916;2023-03-05T07:18:06;1.90;;;1.33;;
76939;SDS011;65885;55.848;35.916;2023-03-05T07:20:33;1.00;;;0.80;;
76939;SDS011;65885;55.848;35.916;2023-03-05T07:23:01;1.60;;;1.50;;
76939;SDS011;65885;55.848;35.916;2023-03-05T07:25:30;1.90;;;1.80;;
76939;SDS011;65885;55.848;35.916;2023-03-05T07:28:01;2.00;;;1.65;;
76939;SDS011;65885;55.848;35.916;2023-03-05T07:30:29;2.67;;;1.92;;
76939;SDS011;65885;55.848;35.916;2023-03-05T07:32:57;2.63;;;1.90;;
76939;SDS011;65885;55.848;35.916;2023-03-05T07:35:24;2.05;;;1.60;;
76939;SDS011;65885;55.848;35.916;2023-03-05T07:37:52;3.17;;;2.05;;
76939;SDS011;65885;55.848;35.916;2023-03-05T07:40:20;2.78;;;2.08;;
76939;SDS011;65885;55.848;35.916;2023-03-05T07:42:49;2.60;;;1.80;;
76939;SDS011;65885;55.848;35.916;2023-03-05T07:45:16;4.47;;;2.03;;
76939;SDS011;65885;55.848;35.916;2023-03-05T07:47:44;2.50;;;2.00;;
76939;SDS011;65885;55.848;35.916;2023-03-05T07:50:11;3.42;;;1.88;;
76939;SDS011;65885;55.848;35.916;2023-03-05T07:52:39;2.65;;;1.83;;
76939;SDS011;65885;55.848;35.916;2023-03-05T07:55:06;2.30;;;1.75;;
76939;SDS011;65885;55.848;35.916;2023-03-05T07:57:38;2.55;;;1.60;;
76939;SDS011;65885;55.848;35.916;2023-03-05T08:00:08;2.38;;;1.80;;
76939;SDS011;65885;55.848;35.916;2023-03-05T08:02:36;2.58;;;2.38;;
76939;SDS011;65885;55.848;35.916;2023-03-05T08:05:04;2.65;;;2.30;;
76939;SDS011;65885;55.848;35.916;2023-03-05T08:07:32;3.10;;;2.13;;
76939;SDS011;65885;55.848;35.916;2023-03-05T08:09:59;2.95;;;2.20;;
76939;SDS011;65885;55.848;35.916;2023-03-05T08:12:28;2.10;;;1.60;;
76939;SDS011;65885;55.848;35.916;2023-03-05T08:14:55;2.78;;;1.80;;
76939;SDS011;65885;55.848;35.916;2023-03-05T08:17:25;2.22;;;2.03;;
76939;SDS011;65885;55.848;35.916;2023-03-05T08:19:53;3.35;;;1.80;;
76939;SDS011;65885;55.848;35.916;2023-03-05T08:22:22;2.33;;;2.13;;
76939;SDS011;65885;55.848;35.916;2023-03-05T08:24:50;2.83;;;1.90;;
76939;SDS011;65885;55.848;35.916;2023-03-05T08:27:17;2.38;;;1.85;;
76939;SDS011;65885;55.848;35.916;2023-03-05T08:29:45;3.05;;;2.45;;
76939;SDS011;65885;55.848;35.916;2023-03-05T08:32:12;3.35;;;2.30;;
76939;SDS011;65885;55.848;35.916;2023-03-05T08:34:41;2.10;;;1.52;;
76939;SDS011;65885;55.848;35.916;2023-03-05T08:37:08;2.85;;;1.83;;
76939;SDS011;65885;55.848;35.916;2023-03-05T08:39:36;2.00;;;1.73;;
76939;SDS011;65885;55.848;35.916;2023-03-05T08:42:03;3.10;;;2.47;;
76939;SDS011;65885;55.848;35.916;2023-03-05T08:44:31;2.47;;;1.67;;
76939;SDS011;65885;55.848;35.916;2023-03-05T08:46:58;2.05;;;1.63;;
76939;SDS011;65885;55.848;35.916;2023-03-05T08:49:26;2.33;;;2.10;;
76939;SDS011;65885;55.848;35.916;2023-03-05T08:51:55;2.50;;;2.05;;
76939;SDS011;65885;55.848;35.916;2023-03-05T08:54:22;2.97;;;1.75;;
76939;SDS011;65885;55.848;35.916;2023-03-05T08:56:50;2.53;;;1.88;;
76939;SDS011;65885;55.848;35.916;2023-03-05T08:59:17;2.63;;;2.42;;
76939;SDS011;65885;55.848;35.916;2023-03-05T09:01:45;2.50;;;1.80;;
76939;SDS011;65885;55.848;35.916;2023-03-05T09:04:12;3.00;;;2.20;;
76939;SDS011;65885;55.848;35.916;2023-03-05T09:06:40;2.47;;;1.90;;
76939;SDS011;65885;55.848;35.916;2023-03-05T09:09:09;2.75;;;2.00;;
76939;SDS011;65885;55.848;35.916;2023-03-05T09:11:37;2.47;;;2.28;;
76939;SDS011;65885;55.848;35.916;2023-03-05T09:14:05;2.22;;;1.75;;
76939;SDS011;65885;55.848;35.916;2023-03-05T09:16:33;2.28;;;1.80;;
76939;SDS011;65885;55.848;35.916;2023-03-05T09:19:02;2.65;;;2.20;;
76939;SDS011;65885;55.848;35.916;2023-03-05T09:21:30;2.53;;;2.25;;
76939;SDS011;65885;55.848;35.916;2023-03-05T09:24:00;2.97;;;1.70;;
76939;SDS011;65885;55.848;35.916;2023-03-05T09:26:29;2.33;;;1.88;;
76939;SDS011;65885;55.848;35.916;2023-03-05T09:28:56;3.97;;;2.28;;
76939;SDS011;65885;55.848;35.916;2023-03-05T09:31:24;2.78;;;2.25;;
76939;SDS011;65885;55.848;35.916;2023-03-05T09:33:51;2.90;;;2.03;;
76939;SDS011;65885;55.848;35.916;2023-03-05T09:36:19;3.33;;;2.25;;
76939;SDS011;65885;55.848;35.916;2023-03-05T09:38:48;2.97;;;2.10;;
76939;SDS011;65885;55.848;35.916;2023-03-05T09:41:16;3.28;;;1.40;;
76939;SDS011;65885;55.848;35.916;2023-03-05T09:43:56;2.10;;;1.80;;
76939;SDS011;65885;55.848;35.916;2023-03-05T09:46:30;2.30;;;1.70;;
76939;SDS011;65885;55.848;35.916;2023-03-05T09:49:11;1.92;;;1.63;;
76939;SDS011;65885;55.848;35.916;2023-03-05T09:51:42;2.60;;;1.80;;
76939;SDS011;65885;55.848;35.916;2023-03-05T09:54:12;2.55;;;1.83;;
76939;SDS011;65885;55.848;35.916;2023-03-05T09:56:46;2.05;;;1.63;;
76939;SDS011;65885;55.848;35.916;2023-03-05T09:59:19;2.13;;;1.50;;
76939;SDS011;65885;55.848;35.916;2023-03-05T10:01:52;2.00;;;1.80;;
76939;SDS011;65885;55.848;35.916;2023-03-05T10:04:22;2.05;;;1.38;;
76939;SDS011;65885;55.848;35.916;2023-03-05T10:06:54;2.20;;;2.00;;
76939;SDS011;65885;55.848;35.916;2023-03-05T10:09:29;2.53;;;1.83;;
76939;SDS011;65885;55.848;35.916;2023-03-05T10:12:09;2.53;;;1.60;;
76939;SDS011;65885;55.848;35.916;2023-03-05T10:14:46;2.15;;;1.67;;
76939;SDS011;65885;55.848;35.916;2023-03-05T10:17:26;2.40;;;1.70;;
76939;SDS011;65885;55.848;35.916;2023-03-05T10:20:31;2.50;;;1.75;;
76939;SDS011;65885;55.848;35.916;2023-03-05T10:23:32;2.00;;;1.52;;
76939;SDS011;65885;55.848;35.916;2023-03-05T10:28:48;2.20;;;2.00;;
76939;SDS011;65885;55.848;35.916;2023-03-05T10:34:31;2.42;;;2.08;;
76939;SDS011;65885;55.848;35.916;2023-03-05T10:40:01;2.85;;;2.40;;
76939;SDS011;65885;55.848;35.916;2023-03-05T10:42:40;2.22;;;1.48;;
76939;SDS011;65885;55.848;35.916;2023-03-05T10:45:14;2.97;;;2.28;;
76939;SDS011;65885;55.848;35.916;2023-03-05T10:47:46;2.00;;;1.75;;
76939;SDS011;65885;55.848;35.916;2023-03-05T10:50:19;2.83;;;2.20;;
76939;SDS011;65885;55.848;35.916;2023-03-05T10:52:50;2.58;;;2.00;;
76939;SDS011;65885;55.848;35.916;2023-03-05T10:55:26;2.90;;;1.75;;
76939;SDS011;65885;55.848;35.916;2023-03-05T10:57:54;2.53;;;2.33;;
76939;SDS011;65885;55.848;35.916;2023-03-05T11:00:24;3.00;;;2.38;;
76939;SDS011;65885;55.848;35.916;2023-03-05T11:02:56;2.15;;;1.75;;
76939;SDS011;65885;55.848;35.916;2023-03-05T11:05:39;2.50;;;2.30;;
76939;SDS011;65885;55.848;35.916;2023-03-05T11:08:23;3.00;;;2.70;;
76939;SDS011;65885;55.848;35.916;2023-03-05T11:11:12;2.00;;;1.73;;
76939;SDS011;65885;55.848;35.916;2023-03-05T11:13:43;2.60;;;1.85;;
76939;SDS011;65885;55.848;35.916;2023-03-05T11:16:19;3.33;;;2.03;;
76939;SDS011;65885;55.848;35.916;2023-03-05T11:18:50;2.13;;;1.50;;
76939;SDS011;65885;55.848;35.916;2023-03-05T11:21:41;2.90;;;2.28;;
76939;SDS011;65885;55.848;35.916;2023-03-05T11:24:11;2.35;;;2.15;;
76939;SDS011;65885;55.848;35.916;2023-03-05T11:26:47;3.53;;;2.10;;
76939;SDS011;65885;55.848;35.916;2023-03-05T11:29:17;2.67;;;1.75;;
76939;SDS011;65885;55.848;35.916;2023-03-05T11:31:47;2.20;;;1.63;;
76939;SDS011;65885;55.848;35.916;2023-03-05T11:34:24;2.90;;;2.70;;
76939;SDS011;65885;55.848;35.916;2023-03-05T11:36:59;2.17;;;1.55;;
76939;SDS011;65885;55.848;35.916;2023-03-05T11:39:30;2.08;;;1.88;;
76939;SDS011;65885;55.848;35.916;2023-03-05T11:42:02;3.35;;;2.22;;
76939;SDS011;65885;55.848;35.916;2023-03-05T11:44:33;1.92;;;1.55;;
76939;SDS011;65885;55.848;35.916;2023-03-05T11:47:12;2.28;;;1.92;;
76939;SDS011;65885;55.848;35.916;2023-03-05T11:49:51;2.65;;;2.45;;
76939;SDS011;65885;55.848;35.916;2023-03-05T11:52:23;3.33;;;1.80;;
76939;SDS011;65885;55.848;35.916;2023-03-05T11:54:58;3.15;;;1.77;;
76939;SDS011;65885;55.848;35.916;2023-03-05T11:57:32;1.92;;;1.58;;
76939;SDS011;65885;55.848;35.916;2023-03-05T12:00:10;1.90;;;1.60;;
76939;SDS011;65885;55.848;35.916;2023-03-05T12:02:43;2.15;;;1.70;;
76939;SDS011;65885;55.848;35.916;2023-03-05T12:05:16;2.58;;;1.83;;
76939;SDS011;65885;55.848;35.916;2023-03-05T12:07:44;1.83;;;1.63;;
76939;SDS011;65885;55.848;35.916;2023-03-05T12:10:16;2.20;;;1.98;;
76939;SDS011;65885;55.848;35.916;2023-03-05T12:15:24;1.73;;;1.42;;
76939;SDS011;65885;55.848;35.916;2023-03-05T12:18:06;1.75;;;1.65;;
76939;SDS011;65885;55.848;35.916;2023-03-05T12:20:52;2.15;;;1.95;;
76939;SDS011;65885;55.848;35.916;2023-03-05T12:23:26;2.22;;;1.63;;
76939;SDS011;65885;55.848;35.916;2023-03-05T12:25:54;2.00;;;1.75;;
76939;SDS011;65885;55.848;35.916;2023-03-05T12:31:24;2.00;;;1.80;;
76939;SDS011;65885;55.848;35.916;2023-03-05T12:33:54;2.10;;;1.33;;
76939;SDS011;65885;55.848;35.916;2023-03-05T12:36:33;2.00;;;1.80;;
76939;SDS011;65885;55.848;35.916;2023-03-05T12:39:20;2.75;;;1.63;;
76939;SDS011;65885;55.848;35.916;2023-03-05T12:45:29;2.53;;;1.75;;
76939;SDS011;65885;55.848;35.916;2023-03-05T12:51:11;1.90;;;1.30;;
76939;SDS011;65885;55.848;35.916;2023-03-05T12:53:39;2.35;;;1.80;;
76939;SDS011;65885;55.848;35.916;2023-03-05T12:56:12;2.42;;;1.80;;
76939;SDS011;65885;55.848;35.916;2023-03-05T12:58:46;2.47;;;2.10;;
76939;SDS011;65885;55.848;35.916;2023-03-05T13:01:26;2.03;;;1.63;;
76939;SDS011;65885;55.848;35.916;2023-03-05T13:04:00;1.98;;;1.58;;
76939;SDS011;65885;55.848;35.916;2023-03-05T13:06:35;2.53;;;2.33;;
76939;SDS011;65885;55.848;35.916;2023-03-05T13:09:07;2.40;;;1.90;;
76939;SDS011;65885;55.848;35.916;2023-03-05T13:11:41;1.85;;;1.40;;
76939;SDS011;65885;55.848;35.916;2023-03-05T13:14:26;1.90;;;1.70;;
76939;SDS011;65885;55.848;35.916;2023-03-05T13:16:57;2.15;;;1.95;;
76939;SDS011;65885;55.848;35.916;2023-03-05T13:19:27;2.08;;;1.45;;
76939;SDS011;65885;55.848;35.916;2023-03-05T13:22:01;2.33;;;2.13;;
76939;SDS011;65885;55.848;35.916;2023-03-05T13:24:30;2.03;;;1.50;;
76939;SDS011;65885;55.848;35.916;2023-03-05T13:26:58;2.40;;;1.30;;
76939;SDS011;65885;55.848;35.916;2023-03-05T13:29:31;1.60;;;1.48;;
76939;SDS011;65885;55.848;35.916;2023-03-05T13:32:01;2.08;;;1.70;;
76939;SDS011;65885;55.848;35.916;2023-03-05T13:34:45;1.83;;;1.73;;
76939;SDS011;65885;55.848;35.916;2023-03-05T13:37:15;1.80;;;1.70;;
76939;SDS011;65885;55.848;35.916;2023-03-05T13:39:47;2.42;;;1.40;;
76939;SDS011;65885;55.848;35.916;2023-03-05T13:42:18;1.83;;;1.52;;
76939;SDS011;65885;55.848;35.916;2023-03-05T13:44:55;1.30;;;1.17;;
76939;SDS011;65885;55.848;35.916;2023-03-05T13:47:26;2.10;;;1.90;;
76939;SDS011;65885;55.848;35.916;2023-03-05T13:49:54;2.00;;;1.70;;
76939;SDS011;65885;55.848;35.916;2023-03-05T13:52:34;2.15;;;1.70;;
76939;SDS011;65885;55.848;35.916;2023-03-05T13:55:04;1.42;;;1.10;;
76939;SDS011;65885;55.848;35.916;2023-03-05T13:57:39;1.77;;;1.58;;
76939;SDS011;65885;55.848;35.916;2023-03-05T14:03:09;2.97;;;1.70;;
76939;SDS011;65885;55.848;35.916;2023-03-05T14:05:49;3.15;;;1.73;;
76939;SDS011;65885;55.848;35.916;2023-03-05T14:08:18;1.65;;;1.20;;
76939;SDS011;65885;55.848;35.916;2023-03-05T14:10:49;1.95;;;1.58;;
76939;SDS011;65885;55.848;35.916;2023-03-05T14:13:18;1.45;;;1.35;;
76939;SDS011;65885;55.848;35.916;2023-03-05T14:16:02;2.22;;;1.65;;
76939;SDS011;65885;55.848;35.916;2023-03-05T14:18:32;2.15;;;1.60;;
76939;SDS011;65885;55.848;35.916;2023-03-05T14:21:02;1.35;;;1.20;;
76939;SDS011;65885;55.848;35.916;2023-03-05T14:28:54;2.33;;;1.58;;
76939;SDS011;65885;55.848;35.916;2023-03-05T14:31:24;1.98;;;1.40;;
76939;SDS011;65885;55.848;35.916;2023-03-05T14:33:58;1.98;;;1.38;;
76939;SDS011;65885;55.848;35.916;2023-03-05T14:36:27;2.38;;;2.00;;
76939;SDS011;65885;55.848;35.916;2023-03-05T14:38:57;2.90;;;2.00;;
76939;SDS011;65885;55.848;35.916;2023-03-05T14:41:37;2.40;;;1.92;;
76939;SDS011;65885;55.848;35.916;2023-03-05T14:44:09;1.88;;;1.33;;
76939;SDS011;65885;55.848;35.916;2023-03-05T14:46:39;2.33;;;1.42;;
76939;SDS011;65885;55.848;35.916;2023-03-05T14:49:08;2.15;;;1.52;;
76939;SDS011;65885;55.848;35.916;2023-03-05T14:51:37;2.47;;;1.42;;
76939;SDS011;65885;55.848;35.916;2023-03-05T14:54:06;1.80;;;1.42;;
76939;SDS011;65885;55.848;35.916;2023-03-05T14:56:43;2.92;;;1.80;;
76939;SDS011;65885;55.848;35.916;2023-03-05T14:59:10;1.55;;;1.38;;
76939;SDS011;65885;55.848;35.916;2023-03-05T15:01:37;1.70;;;1.42;;
76939;SDS011;65885;55.848;35.916;2023-03-05T15:04:05;2.30;;;1.75;;
76939;SDS011;65885;55.848;35.916;2023-03-05T15:06:34;1.95;;;1.33;;
76939;SDS011;65885;55.848;35.916;2023-03-05T15:09:05;1.55;;;1.33;;
76939;SDS011;65885;55.848;35.916;2023-03-05T15:11:37;1.65;;;1.20;;
76939;SDS011;65885;55.848;35.916;2023-03-05T15:14:05;1.90;;;1.52;;
76939;SDS011;65885;55.848;35.916;2023-03-05T15:16:32;2.50;;;1.40;;
76939;SDS011;65885;55.848;35.916;2023-03-05T15:18:59;1.90;;;1.58;;
76939;SDS011;65885;55.848;35.916;2023-03-05T15:21:28;2.45;;;1.98;;
76939;SDS011;65885;55.848;35.916;2023-03-05T15:23:57;3.38;;;1.90;;